createdAt,value
2018-12-23T00:00:29.046Z,95413.06
2018-12-23T00:02:59.403Z,95415.78
2018-12-23T00:05:29.627Z,95416.89
2018-12-23T00:07:59.869Z,95414.00
2018-12-23T00:10:30.112Z,95408.88
2018-12-23T00:13:00.266Z,95416.59
2018-12-23T00:15:30.446Z,95422.66
2018-12-23T00:18:00.734Z,95428.11
2018-12-23T00:20:31.057Z,95428.91
2018-12-23T00:23:01.345Z,95430.69
2018-12-23T00:25:31.822Z,95446.39
2018-12-23T00:28:02.036Z,95445.77
2018-12-23T00:30:32.141Z,95448.33
2018-12-23T00:33:02.418Z,95439.02
2018-12-23T00:35:32.593Z,95459.37
2018-12-23T00:38:02.785Z,95460.19
2018-12-23T00:40:33.038Z,95453.44
2018-12-23T00:43:03.333Z,95453.13
2018-12-23T00:45:33.595Z,95461.47
2018-12-23T00:48:03.814Z,95457.95
2018-12-23T00:50:34.194Z,95467.70
2018-12-23T00:53:04.433Z,95473.32
2018-12-23T00:55:34.709Z,95471.38
2018-12-23T00:58:04.895Z,95475.53
2018-12-23T01:00:35.416Z,95482.90
2018-12-23T01:03:05.581Z,95482.63
2018-12-23T01:05:35.866Z,95480.69
2018-12-23T01:08:06.017Z,95470.45
2018-12-23T01:10:36.260Z,95471.11
2018-12-23T01:13:06.478Z,95471.73
2018-12-23T01:15:36.733Z,95459.86
2018-12-23T01:18:07.122Z,95468.05
2018-12-23T01:20:37.311Z,95475.27
2018-12-23T01:23:07.562Z,95474.96
2018-12-23T01:25:37.933Z,95471.73
2018-12-23T01:28:08.247Z,95480.06
2018-12-23T01:30:39.455Z,95481.36
2018-12-23T01:33:09.788Z,95479.77
2018-12-23T01:35:39.893Z,95477.83
2018-12-23T01:38:10.211Z,95479.92
2018-12-23T01:40:40.528Z,95477.52
2018-12-23T01:43:10.640Z,95489.23
2018-12-23T01:45:40.890Z,95489.69
2018-12-23T01:48:11.152Z,95496.60
2018-12-23T01:50:41.472Z,95494.64
2018-12-23T01:53:11.853Z,95496.42
2018-12-23T01:55:42.046Z,95492.39
2018-12-23T01:58:12.101Z,95480.53
2018-12-23T02:00:42.393Z,95474.63
2018-12-23T02:03:12.685Z,95473.17
2018-12-23T02:05:46.175Z,95482.14
2018-12-23T02:08:16.439Z,95477.83
2018-12-23T02:10:46.676Z,95478.46
2018-12-23T02:13:16.899Z,95473.30
2018-12-23T02:15:47.848Z,95487.89
2018-12-23T02:18:18.147Z,95476.83
2018-12-23T02:20:48.516Z,95485.30
2018-12-23T02:23:18.785Z,95482.25
2018-12-23T02:25:48.986Z,95497.80
2018-12-23T02:28:19.229Z,95500.51
2018-12-23T02:30:49.479Z,95507.55
2018-12-23T02:33:20.167Z,95504.66
2018-12-23T02:35:55.437Z,95503.52
2018-12-23T02:38:22.682Z,95503.67
2018-12-23T02:40:52.991Z,95505.57
2018-12-23T02:43:23.217Z,95513.63
2018-12-23T02:45:53.792Z,95512.66
2018-12-23T02:48:24.034Z,95522.69
2018-12-23T02:50:54.329Z,95518.47
2018-12-23T02:53:24.572Z,95511.08
2018-12-23T02:55:54.760Z,95514.02
2018-12-23T02:58:25.005Z,95502.73
2018-12-23T03:00:55.269Z,95510.77
2018-12-23T03:03:25.551Z,95496.45
2018-12-23T03:06:05.421Z,95479.55
2018-12-23T03:08:28.097Z,95472.83
2018-12-23T03:10:58.331Z,95468.66
2018-12-23T03:13:28.615Z,95468.47
2018-12-23T03:15:59.193Z,95468.66
2018-12-23T03:18:29.439Z,95459.02
2018-12-23T03:20:59.675Z,95452.30
2018-12-23T03:23:30.107Z,95441.22
2018-12-23T03:26:00.272Z,95427.47
2018-12-23T03:28:30.611Z,95422.50
2018-12-23T03:31:00.895Z,95410.78
2018-12-23T03:33:31.214Z,95409.75
2018-12-23T03:36:01.429Z,95406.85
2018-12-23T03:38:31.641Z,95396.26
2018-12-23T03:41:01.918Z,95386.74
2018-12-23T03:43:32.080Z,95401.48
2018-12-23T03:46:02.858Z,95394.45
2018-12-23T03:48:33.042Z,95402.59
2018-12-23T03:51:03.231Z,95402.76
2018-12-23T03:53:33.448Z,95414.29
2018-12-23T03:56:03.947Z,95422.08
2018-12-23T03:58:34.171Z,95447.13
2018-12-23T04:01:04.432Z,95464.48
2018-12-23T04:03:34.705Z,95473.95
2018-12-23T04:06:04.975Z,95485.04
2018-12-23T04:08:35.194Z,95481.86
2018-12-23T04:11:05.347Z,95480.57
2018-12-23T04:13:35.482Z,95475.43
2018-12-23T04:16:05.773Z,95480.25
2018-12-23T04:18:36.128Z,95484.45
2018-12-23T04:21:06.286Z,95474.68
2018-12-23T04:23:36.552Z,95484.50
2018-12-23T04:26:06.827Z,95461.08
2018-12-23T04:28:37.779Z,95471.21
2018-12-23T04:31:08.076Z,95476.98
2018-12-23T04:33:38.586Z,95488.05
2018-12-23T04:36:08.847Z,95488.71
2018-12-23T04:38:39.105Z,95488.55
2018-12-23T04:41:10.092Z,95501.88
2018-12-23T04:43:40.445Z,95497.55
2018-12-23T04:46:10.431Z,95498.53
2018-12-23T04:48:40.573Z,95506.70
2018-12-23T04:51:11.020Z,95501.88
2018-12-23T04:53:43.014Z,95501.24
2018-12-23T04:56:13.258Z,95507.02
2018-12-23T04:58:43.363Z,95507.34
2018-12-23T05:01:14.363Z,95499.64
2018-12-23T05:03:45.317Z,95500.91
2018-12-23T05:06:17.801Z,95509.27
2018-12-23T05:08:47.770Z,95517.13
2018-12-23T05:11:18.271Z,95533.96
2018-12-23T05:13:48.490Z,95527.07
2018-12-23T05:16:18.767Z,95531.71
2018-12-23T05:18:49.048Z,95545.37
2018-12-23T05:21:19.393Z,95534.14
2018-12-23T05:23:49.639Z,95522.73
2018-12-23T05:26:19.842Z,95512.14
2018-12-23T05:28:50.060Z,95519.06
2018-12-23T05:31:20.262Z,95528.98
2018-12-23T05:33:50.348Z,95522.58
2018-12-23T05:36:20.734Z,95515.52
2018-12-23T05:38:50.886Z,95505.09
2018-12-23T05:41:21.260Z,95500.92
2018-12-23T05:43:51.367Z,95501.58
2018-12-23T05:46:21.611Z,95510.86
2018-12-23T05:48:51.730Z,95510.56
2018-12-23T05:51:22.029Z,95514.23
2018-12-23T05:53:52.357Z,95527.39
2018-12-23T05:56:22.497Z,95533.32
2018-12-23T05:58:52.652Z,95536.83
2018-12-23T06:01:22.852Z,95559.13
2018-12-23T06:03:53.153Z,95557.36
2018-12-23T06:06:23.536Z,95556.27
2018-12-23T06:08:53.780Z,95551.31
2018-12-23T06:11:24.015Z,95552.41
2018-12-23T06:13:54.880Z,95561.25
2018-12-23T06:16:25.117Z,95562.84
2018-12-23T06:18:55.373Z,95570.06
2018-12-23T06:21:25.645Z,95575.05
2018-12-23T06:23:55.926Z,95572.48
2018-12-23T06:26:26.163Z,95577.29
2018-12-23T06:28:56.680Z,95575.36
2018-12-23T06:31:26.826Z,95588.34
2018-12-23T06:33:57.151Z,95596.22
2018-12-23T06:36:36.345Z,95593.94
2018-12-23T06:39:07.823Z,95591.33
2018-12-23T06:41:38.219Z,95592.30
2018-12-23T06:44:08.374Z,95591.31
2018-12-23T06:46:38.616Z,95596.78
2018-12-23T06:49:09.124Z,95585.86
2018-12-23T06:51:39.405Z,95584.56
2018-12-23T06:54:09.634Z,95583.77
2018-12-23T06:56:39.793Z,95589.69
2018-12-23T06:59:10.036Z,95589.66
2018-12-23T07:01:40.340Z,95606.16
2018-12-23T07:04:10.477Z,95608.82
2018-12-23T07:06:40.717Z,95617.75
2018-12-23T07:09:10.917Z,95620.25
2018-12-23T07:11:41.240Z,95632.91
2018-12-23T07:14:11.501Z,95629.86
2018-12-23T07:16:41.861Z,95640.00
2018-12-23T07:19:12.132Z,95633.22
2018-12-23T07:21:42.420Z,95629.23
2018-12-23T07:24:12.738Z,95622.89
2018-12-23T07:26:43.723Z,95618.05
2018-12-23T07:29:14.020Z,95611.60
2018-12-23T07:31:44.320Z,95607.83
2018-12-23T07:34:14.543Z,95617.03
2018-12-23T07:36:49.607Z,95615.52
2018-12-23T07:39:17.721Z,95622.24
2018-12-23T07:41:47.908Z,95618.37
2018-12-23T07:44:18.161Z,95622.41
2018-12-23T07:46:48.925Z,95617.83
2018-12-23T07:49:19.177Z,95613.67
2018-12-23T07:51:49.408Z,95604.02
2018-12-23T07:54:19.673Z,95598.03
2018-12-23T07:56:49.794Z,95597.45
2018-12-23T07:59:20.137Z,95602.28
2018-12-23T08:01:50.476Z,95604.90
2018-12-23T08:04:20.696Z,95609.49
2018-12-23T08:06:50.959Z,95610.37
2018-12-23T08:09:21.635Z,95611.73
2018-12-23T08:11:51.794Z,95619.78
2018-12-23T08:14:22.043Z,95621.57
2018-12-23T08:16:52.232Z,95620.83
2018-12-23T08:19:22.475Z,95619.34
2018-12-23T08:21:52.800Z,95618.81
2018-12-23T08:24:22.891Z,95618.16
2018-12-23T08:26:53.172Z,95624.71
2018-12-23T08:29:23.336Z,95629.00
2018-12-23T08:31:53.693Z,95627.28
2018-12-23T08:34:23.961Z,95631.31
2018-12-23T08:36:54.778Z,95645.23
2018-12-23T08:39:24.943Z,95642.98
2018-12-23T08:41:56.237Z,95653.65
2018-12-23T08:44:26.300Z,95647.58
2018-12-23T08:46:56.477Z,95652.06
2018-12-23T08:49:26.746Z,95655.45
2018-12-23T08:51:57.567Z,95654.27
2018-12-23T08:54:27.840Z,95655.34
2018-12-23T08:56:58.575Z,95663.95
2018-12-23T08:59:29.051Z,95654.11
2018-12-23T09:01:59.231Z,95650.95
2018-12-23T09:04:29.617Z,95653.48
2018-12-23T09:06:59.951Z,95658.81
2018-12-23T09:09:31.257Z,95653.16
2018-12-23T09:12:01.597Z,95642.95
2018-12-23T09:14:31.768Z,95640.07
2018-12-23T09:17:01.907Z,95636.41
2018-12-23T09:19:32.181Z,95627.80
2018-12-23T09:22:02.518Z,95606.97
2018-12-23T09:24:32.650Z,95624.81
2018-12-23T09:27:02.954Z,95621.09
2018-12-23T09:29:33.234Z,95623.81
2018-12-23T09:32:03.279Z,95618.81
2018-12-23T09:36:02.654Z,95607.20
2018-12-23T09:38:33.333Z,95614.48
2018-12-23T09:41:04.809Z,95615.47
2018-12-23T09:43:34.895Z,95616.11
2018-12-23T09:46:05.225Z,95610.08
2018-12-23T09:48:35.496Z,95607.26
2018-12-23T09:51:05.910Z,95603.23
2018-12-23T09:53:36.124Z,95602.70
2018-12-23T09:56:06.302Z,95600.31
2018-12-23T09:58:36.620Z,95601.48
2018-12-23T10:01:07.382Z,95603.03
2018-12-23T10:03:37.960Z,95603.45
2018-12-23T10:06:08.154Z,95603.70
2018-12-23T10:08:38.333Z,95597.14
2018-12-23T10:11:08.623Z,95596.72
2018-12-23T10:13:38.884Z,95591.80
2018-12-23T10:16:09.032Z,95600.80
2018-12-23T10:18:39.011Z,95601.78
2018-12-23T10:21:10.237Z,95591.98
2018-12-23T10:23:40.732Z,95574.79
2018-12-23T10:26:11.125Z,95565.01
2018-12-23T10:28:41.131Z,95568.91
2018-12-23T10:31:12.029Z,95570.98
2018-12-23T10:33:42.546Z,95562.34
2018-12-23T10:36:12.874Z,95563.60
2018-12-23T10:38:43.084Z,95567.09
2018-12-23T10:41:13.450Z,95566.08
2018-12-23T10:43:43.595Z,95558.33
2018-12-23T10:46:13.599Z,95556.34
2018-12-23T10:48:43.951Z,95561.23
2018-12-23T10:51:14.204Z,95570.75
2018-12-23T10:53:44.729Z,95573.74
2018-12-23T10:56:15.206Z,95558.20
2018-12-23T10:58:45.532Z,95556.05
2018-12-23T11:01:15.920Z,95562.78
2018-12-23T11:03:46.313Z,95558.73
2018-12-23T11:06:16.640Z,95564.13
2018-12-23T11:08:47.046Z,95563.57
2018-12-23T11:11:18.434Z,95560.59
2018-12-23T11:13:48.723Z,95563.00
2018-12-23T11:16:19.051Z,95552.02
2018-12-23T11:18:50.333Z,95565.69
2018-12-23T11:21:20.791Z,95577.30
2018-12-23T11:23:51.099Z,95566.69
2018-12-23T11:26:21.401Z,95572.31
2018-12-23T11:28:51.645Z,95584.53
2018-12-23T11:31:21.930Z,95585.50
2018-12-23T11:33:52.143Z,95587.35
2018-12-23T11:36:22.363Z,95596.23
2018-12-23T11:38:52.655Z,95582.08
2018-12-23T11:41:22.745Z,95587.78
2018-12-23T11:43:54.266Z,95592.27
2018-12-23T11:46:24.638Z,95590.44
2018-12-23T11:48:56.046Z,95596.20
2018-12-23T11:51:26.485Z,95601.30
2018-12-23T11:53:56.738Z,95602.13
2018-12-23T11:56:27.582Z,95619.13
2018-12-23T11:58:57.820Z,95606.41
2018-12-23T12:01:28.057Z,95604.12
2018-12-23T12:03:58.033Z,95614.93
2018-12-23T12:06:28.243Z,95598.64
2018-12-23T12:09:06.788Z,95609.66
2018-12-23T12:11:32.323Z,95609.80
2018-12-23T12:14:02.827Z,95611.42
2018-12-23T12:16:32.938Z,95612.12
2018-12-23T12:19:02.922Z,95607.50
2018-12-23T12:21:32.954Z,95607.44
2018-12-23T12:24:03.388Z,95608.84
2018-12-23T12:26:33.723Z,95609.82
2018-12-23T12:29:03.673Z,95606.70
2018-12-23T12:31:34.088Z,95613.20
2018-12-23T12:34:04.573Z,95615.56
2018-12-23T12:36:34.664Z,95611.84
2018-12-23T12:39:06.957Z,95608.48
2018-12-23T12:41:37.385Z,95618.89
2018-12-23T12:44:08.310Z,95622.32
2018-12-23T12:46:38.429Z,95634.34
2018-12-23T12:49:44.589Z,95627.32
2018-12-23T12:52:16.159Z,95635.40
2018-12-23T12:54:47.784Z,95650.51
2018-12-23T12:57:19.519Z,95652.52
2018-12-23T12:59:53.251Z,95663.47
2018-12-23T13:02:24.909Z,95667.09
2018-12-23T13:04:56.608Z,95669.34
2018-12-23T13:07:28.390Z,95657.63
2018-12-23T13:10:00.288Z,95663.57
2018-12-23T13:12:32.013Z,95663.97
2018-12-23T13:15:03.881Z,95677.51
2018-12-23T13:17:35.464Z,95682.13
2018-12-23T13:20:08.002Z,95688.96
2018-12-23T13:22:39.458Z,95692.20
2018-12-23T13:25:10.997Z,95689.52
2018-12-23T13:27:42.438Z,95682.22
2018-12-23T13:30:14.142Z,95692.23
2018-12-23T13:32:45.765Z,95691.01
2018-12-23T13:35:17.416Z,95686.44
2018-12-23T13:37:49.738Z,95690.03
2018-12-23T13:41:10.138Z,95691.50
2018-12-23T13:44:22.012Z,95673.73
2018-12-23T13:47:23.046Z,95687.73
2018-12-23T13:50:49.612Z,95684.59
2018-12-23T13:53:57.488Z,95693.45
2018-12-23T13:56:53.445Z,95698.55
2018-12-23T14:00:16.491Z,95701.09
2018-12-23T14:03:13.462Z,95698.33
2018-12-23T14:06:22.958Z,95697.20
2018-12-23T14:09:53.427Z,95711.75
2018-12-23T14:12:25.145Z,95707.86
2018-12-23T14:14:56.823Z,95718.63
2018-12-23T14:17:28.469Z,95708.55
2018-12-23T14:20:00.233Z,95702.13
2018-12-23T14:22:31.921Z,95711.06
2018-12-23T14:25:03.466Z,95707.88
2018-12-23T14:27:35.145Z,95707.17
2018-12-23T14:30:07.466Z,95721.30
2018-12-23T14:32:39.116Z,95705.14
2018-12-23T14:35:10.721Z,95709.18
2018-12-23T14:37:42.572Z,95701.16
2018-12-23T14:40:14.339Z,95702.70
2018-12-23T14:42:46.104Z,95694.71
2018-12-23T14:45:17.750Z,95692.13
2018-12-23T14:47:49.455Z,95684.28
2018-12-23T14:50:20.963Z,95678.81
2018-12-23T14:52:52.685Z,95671.42
2018-12-23T14:55:24.374Z,95689.63
2018-12-23T14:57:55.972Z,95689.63
2018-12-23T15:00:27.518Z,95686.25
2018-12-23T15:02:59.380Z,95686.20
2018-12-23T15:05:30.932Z,95689.37
2018-12-23T15:08:03.555Z,95685.00
2018-12-23T15:10:35.213Z,95691.82
2018-12-23T15:13:06.826Z,95686.92
2018-12-23T15:15:38.344Z,95700.88
2018-12-23T15:18:09.973Z,95693.61
2018-12-23T15:20:41.604Z,95700.13
2018-12-23T15:23:13.476Z,95694.55
2018-12-23T15:25:45.028Z,95701.61
2018-12-23T15:28:16.730Z,95708.95
2018-12-23T15:30:48.450Z,95699.15
2018-12-23T15:33:19.963Z,95706.06
2018-12-23T15:35:51.329Z,95711.55
2018-12-23T15:38:22.817Z,95711.55
2018-12-23T15:40:54.465Z,95710.75
2018-12-23T15:43:26.031Z,95725.16
2018-12-23T15:45:57.706Z,95728.49
2018-12-23T15:48:29.509Z,95725.59
2018-12-23T15:51:01.243Z,95727.63
2018-12-23T15:53:32.939Z,95727.27
2018-12-23T15:56:04.753Z,95726.52
2018-12-23T15:58:36.481Z,95731.32
2018-12-23T16:01:08.320Z,95718.70
2018-12-23T16:03:39.927Z,95719.02
2018-12-23T16:06:11.473Z,95730.10
2018-12-23T16:08:42.976Z,95730.10
2018-12-23T16:11:14.694Z,95734.34
2018-12-23T16:13:46.396Z,95736.30
2018-12-23T16:16:18.165Z,95736.30
2018-12-23T16:18:49.949Z,95736.68
2018-12-23T16:21:21.619Z,95740.45
2018-12-23T16:23:53.309Z,95740.06
2018-12-23T16:26:24.841Z,95751.81
2018-12-23T16:28:56.459Z,95751.81
2018-12-23T16:31:28.367Z,95761.14
2018-12-23T16:34:00.301Z,95761.14
2018-12-23T16:36:32.047Z,95762.86
2018-12-23T16:39:04.343Z,95763.27
2018-12-23T16:41:35.828Z,95754.47
2018-12-23T16:44:07.835Z,95764.42
2018-12-23T16:46:39.536Z,95758.52
2018-12-23T16:49:11.139Z,95758.52
2018-12-23T16:51:44.609Z,95759.78
2018-12-23T16:54:16.301Z,95757.59
2018-12-23T16:56:47.863Z,95756.71
2018-12-23T16:59:19.858Z,95767.40
2018-12-23T17:01:51.625Z,95766.59
2018-12-23T17:04:23.344Z,95767.58
2018-12-23T17:06:56.174Z,95767.58
2018-12-23T17:09:27.867Z,95762.33
2018-12-23T17:11:59.444Z,95759.12
2018-12-23T17:14:31.229Z,95751.99
2018-12-23T17:17:02.762Z,95751.99
2018-12-23T17:19:34.462Z,95753.25
2018-12-23T17:22:06.229Z,95761.10
2018-12-23T17:24:37.916Z,95748.08
2018-12-23T17:27:09.355Z,95755.62
2018-12-23T17:29:41.153Z,95755.62
2018-12-23T17:32:12.782Z,95758.79
2018-12-23T17:34:44.247Z,95758.90
2018-12-23T17:37:15.733Z,95766.66
2018-12-23T17:39:47.165Z,95758.97
2018-12-23T17:42:18.574Z,95759.94
2018-12-23T17:44:50.042Z,95769.39
2018-12-23T17:47:21.493Z,95770.11
2018-12-23T17:49:53.086Z,95772.95
2018-12-23T17:52:24.549Z,95774.30
2018-12-23T17:54:56.139Z,95768.05
2018-12-23T17:57:27.657Z,95753.67
2018-12-23T17:59:59.118Z,95759.63
2018-12-23T18:02:30.577Z,95752.95
2018-12-23T18:05:02.021Z,95752.95
2018-12-23T18:07:33.517Z,95742.70
2018-12-23T18:10:05.018Z,95742.63
2018-12-23T18:12:36.565Z,95742.13
2018-12-23T18:15:08.151Z,95749.85
2018-12-23T18:17:39.607Z,95747.93
2018-12-23T18:20:11.028Z,95759.17
2018-12-23T18:22:43.544Z,95750.37
2018-12-23T18:25:15.178Z,95756.97
2018-12-23T18:27:46.711Z,95744.57
2018-12-23T18:30:18.461Z,95745.66
2018-12-23T18:32:50.025Z,95750.77
2018-12-23T18:35:23.535Z,95750.77
2018-12-23T18:37:55.541Z,95742.84
2018-12-23T18:40:33.291Z,95737.22
2018-12-23T18:43:00.703Z,95734.29
2018-12-23T18:45:32.359Z,95738.73
2018-12-23T18:48:04.166Z,95740.00
2018-12-23T18:50:36.272Z,95749.38
2018-12-23T18:53:07.802Z,95744.45
2018-12-23T18:55:39.815Z,95740.52
2018-12-23T18:58:11.781Z,95738.12
2018-12-23T19:00:46.216Z,95744.02
2018-12-23T19:03:17.789Z,95741.22
2018-12-23T19:05:49.544Z,95738.72
2018-12-23T19:08:27.754Z,95728.78
2018-12-23T19:11:28.013Z,95731.10
2018-12-23T19:14:37.247Z,95728.44
2018-12-23T19:17:41.773Z,95733.64
2018-12-23T19:20:50.728Z,95726.34
2018-12-23T19:24:10.986Z,95722.21
2018-12-23T19:27:31.656Z,95723.04
2018-12-23T19:30:48.749Z,95726.63
2018-12-23T19:33:51.415Z,95723.16
2018-12-23T19:37:03.652Z,95723.84
2018-12-23T19:40:21.917Z,95725.61
2018-12-23T19:43:34.096Z,95719.17
2018-12-23T19:46:24.996Z,95711.25
2018-12-23T19:49:24.938Z,95716.08
2018-12-23T19:52:39.112Z,95713.78
2018-12-23T19:55:50.130Z,95712.17
2018-12-23T19:58:54.667Z,95684.93
2018-12-23T20:02:24.948Z,95717.66
2018-12-23T20:05:51.336Z,95718.17
2018-12-23T20:09:18.128Z,95720.27
2018-12-23T20:12:24.950Z,95722.27
2018-12-23T20:15:32.202Z,95726.50
2018-12-23T20:18:32.045Z,95708.87
2018-12-23T20:21:52.961Z,95710.47
2018-12-23T20:24:53.944Z,95709.19
2018-12-23T20:28:08.046Z,95705.32
2018-12-23T20:31:20.641Z,95685.77
2018-12-23T20:34:51.278Z,95685.77
2018-12-23T20:38:06.550Z,95692.84
2018-12-23T20:41:21.760Z,95684.83
2018-12-23T20:44:51.978Z,95701.52
2018-12-23T20:48:10.101Z,95701.52
2018-12-23T20:51:19.348Z,95692.86
2018-12-23T20:54:39.901Z,95689.64
2018-12-23T20:58:04.305Z,95689.64
2018-12-23T21:01:18.668Z,95695.78
2018-12-23T21:04:45.398Z,95704.45
2018-12-23T21:08:00.388Z,95692.41
2018-12-23T21:11:36.737Z,95697.70
2018-12-23T21:14:39.174Z,95687.25
2018-12-23T21:17:35.214Z,95687.25
2018-12-23T21:20:44.419Z,95689.98
2018-12-23T21:23:58.288Z,95699.48
2018-12-23T21:27:18.769Z,95691.28
2018-12-23T21:30:46.178Z,95680.84
2018-12-23T21:34:00.328Z,95684.19
2018-12-23T21:37:12.417Z,95684.19
2018-12-23T21:40:32.628Z,95680.99
2018-12-23T21:43:49.659Z,95667.45
2018-12-23T21:47:11.141Z,95674.20
2018-12-23T21:50:28.160Z,95674.22
2018-12-23T21:53:48.147Z,95664.60
2018-12-23T21:57:06.118Z,95664.60
2018-12-23T22:00:03.854Z,95665.84
2018-12-23T22:03:46.480Z,95665.84
2018-12-23T22:06:53.199Z,95663.56
2018-12-23T22:10:01.220Z,95665.53
2018-12-23T22:13:31.526Z,95665.53
2018-12-23T22:16:03.129Z,95656.37
2018-12-23T22:18:34.547Z,95656.17
2018-12-23T22:21:06.018Z,95671.23
2018-12-23T22:23:37.666Z,95671.23
2018-12-23T22:26:09.367Z,95669.16
2018-12-23T22:28:41.148Z,95666.89
2018-12-23T22:31:12.938Z,95666.89
2018-12-23T22:33:44.688Z,95665.78
2018-12-23T22:36:16.594Z,95658.77
2018-12-23T22:38:48.316Z,95658.77
2018-12-23T22:41:23.604Z,95654.78
2018-12-23T22:43:54.998Z,95654.78
2018-12-23T22:46:26.456Z,95646.46
2018-12-23T22:48:57.968Z,95647.41
2018-12-23T22:51:29.617Z,95647.41
2018-12-23T22:54:01.141Z,95634.11
2018-12-23T22:56:32.729Z,95632.50
2018-12-23T22:59:05.114Z,95625.28
2018-12-23T23:01:40.184Z,95620.96
2018-12-23T23:04:11.817Z,95626.42
2018-12-23T23:06:43.593Z,95619.35
2018-12-23T23:09:15.007Z,95619.35
2018-12-23T23:11:50.031Z,95616.45
2018-12-23T23:14:19.696Z,95614.38
2018-12-23T23:16:51.385Z,95594.00
2018-12-23T23:19:23.780Z,95594.00
2018-12-23T23:21:55.236Z,95609.24
2018-12-23T23:24:26.719Z,95600.29
2018-12-23T23:26:58.352Z,95605.27
2018-12-23T23:29:30.067Z,95596.81
2018-12-23T23:32:01.471Z,95596.81
2018-12-23T23:34:32.940Z,95589.09
2018-12-23T23:37:04.366Z,95589.09
2018-12-23T23:39:36.139Z,95579.48
2018-12-23T23:42:07.806Z,95576.42
2018-12-23T23:44:39.514Z,95570.45
2018-12-23T23:47:11.138Z,95570.45
2018-12-23T23:49:42.811Z,95577.03
2018-12-23T23:52:14.281Z,95582.49
2018-12-23T23:54:45.937Z,95574.97
2018-12-23T23:57:17.581Z,95574.97
2018-12-23T23:59:49.189Z,95578.62
